createdAt,value
2022-08-30T09:30:59.715Z,98944.97
2022-08-30T09:33:29.023Z,98930.34
2022-08-30T09:35:56.212Z,98944.66
2022-08-30T09:38:23.058Z,98944.41
2022-08-30T09:40:54.393Z,98934.16
2022-08-30T09:43:34.359Z,98934.16
2022-08-30T09:46:01.498Z,98929.72
2022-08-30T09:48:44.403Z,98925.28
2022-08-30T09:51:11.676Z,98928.31
2022-08-30T09:54:16.592Z,98933.25
2022-08-30T09:57:12.752Z,98934.63
2022-08-30T09:59:46.192Z,98931.03
2022-08-30T10:02:25.436Z,98935.16
2022-08-30T10:04:58.100Z,98930.19
2022-08-30T10:10:28.456Z,98931.25
2022-08-30T10:13:05.696Z,98925.44
2022-08-30T10:15:35.947Z,98925.16
2022-08-30T10:18:43.330Z,98918.25
2022-08-30T10:21:19.453Z,98919.59
2022-08-30T10:23:49.666Z,98924.56
2022-08-30T10:26:29.997Z,98913.50
2022-08-30T10:29:04.042Z,98919.03
2022-08-30T10:31:52.619Z,98913.22
2022-08-30T10:34:27.873Z,98904.09
2022-08-30T10:36:58.707Z,98912.94
2022-08-30T10:39:27.253Z,98911.00
2022-08-30T10:42:06.101Z,98919.00
2022-08-30T10:44:37.178Z,98909.88
2022-08-30T10:47:32.228Z,98910.16
2022-08-30T10:50:41.319Z,98903.47
2022-08-30T10:53:25.561Z,98889.66
2022-08-30T10:55:56.958Z,98892.13
2022-08-30T10:58:24.104Z,98893.78
2022-08-30T11:01:03.939Z,98891.88
2022-08-30T11:03:47.824Z,98893.50
2022-08-30T11:06:26.211Z,98895.47
2022-08-30T11:09:09.051Z,98895.97
2022-08-30T11:11:40.782Z,98892.94
2022-08-30T11:14:08.070Z,98895.69
2022-08-30T11:16:40.208Z,98884.09
2022-08-30T11:19:34.887Z,98882.97
2022-08-30T11:22:21.704Z,98885.19
2022-08-30T11:25:10.187Z,98886.84
2022-08-30T11:27:40.162Z,98882.16
2022-08-30T11:30:25.835Z,98869.97
2022-08-30T11:32:59.610Z,98872.44
2022-08-30T11:35:50.006Z,98878.81
2022-08-30T11:38:41.330Z,98870.22
2022-08-30T11:41:30.046Z,98863.59
2022-08-30T11:43:57.499Z,98869.63
2022-08-30T11:46:27.196Z,98865.75
2022-08-30T11:48:55.682Z,98861.88
2022-08-30T11:51:58.229Z,98864.34
2022-08-30T11:54:39.493Z,98875.41
2022-08-30T11:57:12.490Z,98879.00
2022-08-30T12:00:08.989Z,98866.84
2022-08-30T12:02:59.320Z,98861.84
2022-08-30T12:05:41.341Z,98857.66
2022-08-30T12:08:20.446Z,98854.06
2022-08-30T12:10:53.165Z,98855.72
2022-08-30T12:13:37.986Z,98852.13
2022-08-30T12:16:15.133Z,98847.44
2022-08-30T12:18:50.803Z,98845.22
2022-08-30T12:21:21.389Z,98846.84
2022-08-30T12:23:54.783Z,98842.97
2022-08-30T12:26:25.629Z,98846.28
2022-08-30T12:28:54.105Z,98847.13
2022-08-30T12:31:23.377Z,98848.75
2022-08-30T12:34:01.069Z,98825.78
2022-08-30T12:36:49.467Z,98828.81
2022-08-30T12:39:19.699Z,98821.03
2022-08-30T12:41:46.614Z,98828.22
2022-08-30T12:44:19.886Z,98830.41
2022-08-30T12:46:49.334Z,98813.50
2022-08-30T12:49:16.868Z,98818.44
2022-08-30T12:51:44.139Z,98805.16
2022-08-30T12:54:20.364Z,98807.66
2022-08-30T12:56:55.388Z,98816.47
2022-08-30T12:59:59.619Z,98812.31
2022-08-30T13:02:42.158Z,98801.22
2022-08-30T13:05:34.951Z,98800.09
2022-08-30T13:08:26.605Z,98803.41
2022-08-30T13:11:07.313Z,98806.19
2022-08-30T13:13:45.227Z,98792.84
2022-08-30T13:16:19.165Z,98791.75
2022-08-30T13:18:46.844Z,98798.66
2022-08-30T13:21:31.987Z,98799.44
2022-08-30T13:24:01.006Z,98792.50
2022-08-30T13:26:30.261Z,98791.91
2022-08-30T13:29:01.897Z,98788.88
2022-08-30T13:31:29.381Z,98786.63
2022-08-30T13:33:57.227Z,98786.06
2022-08-30T13:36:31.803Z,98775.22
2022-08-30T13:38:59.417Z,98784.88
2022-08-30T13:41:26.390Z,98784.59
2022-08-30T13:44:13.870Z,98778.78
2022-08-30T13:46:43.074Z,98779.81
2022-08-30T13:52:20.320Z,98786.44
2022-08-30T13:54:52.057Z,98776.69
2022-08-30T14:00:12.098Z,98771.91
2022-08-30T14:02:44.169Z,98775.22
2022-08-30T14:05:25.439Z,98771.84
2022-08-30T14:08:00.371Z,98772.41
2022-08-30T14:10:32.064Z,98764.59
2022-08-30T14:13:07.762Z,98758.78
2022-08-30T14:15:35.219Z,98762.88
2022-08-30T14:18:05.989Z,98762.31
2022-08-30T14:20:33.445Z,98758.09
2022-08-30T14:23:00.353Z,98752.28
2022-08-30T14:25:28.862Z,98751.66
2022-08-30T14:27:56.428Z,98747.47
2022-08-30T14:30:23.779Z,98757.97
2022-08-30T14:32:50.702Z,98748.22
2022-08-30T14:35:19.466Z,98744.88
2022-08-30T14:37:49.427Z,98744.88
2022-08-30T14:40:16.626Z,98751.22
2022-08-30T14:42:43.615Z,98745.66
2022-08-30T14:45:11.481Z,98740.13
2022-08-30T14:47:38.379Z,98755.97
2022-08-30T14:50:06.193Z,98756.03
2022-08-30T14:52:33.851Z,98750.00
2022-08-30T14:55:08.496Z,98742.91
2022-08-30T14:57:36.136Z,98744.09
2022-08-30T15:00:26.249Z,98756.28
2022-08-30T15:02:54.250Z,98754.13
2022-08-30T15:05:21.235Z,98744.97
2022-08-30T15:07:50.984Z,98748.03
2022-08-30T15:10:20.260Z,98747.53
2022-08-30T15:12:48.686Z,98750.88
2022-08-30T15:15:17.221Z,98747.31
2022-08-30T15:17:44.948Z,98750.88
2022-08-30T15:20:12.674Z,98752.28
2022-08-30T15:22:39.696Z,98746.47
2022-08-30T15:25:08.525Z,98742.88
2022-08-30T15:32:37.556Z,98747.88
2022-08-30T15:35:05.374Z,98748.19
2022-08-30T15:37:34.952Z,98748.47
2022-08-30T15:40:04.600Z,98747.03
2022-08-30T15:42:32.314Z,98751.19
2022-08-30T15:44:59.995Z,98751.53
2022-08-30T15:47:26.902Z,98742.75
2022-08-30T15:49:57.631Z,98751.13
2022-08-30T15:52:25.282Z,98743.44
2022-08-30T15:54:52.366Z,98740.78
2022-08-30T15:57:21.445Z,98740.63
2022-08-30T15:59:48.498Z,98739.00
2022-08-30T16:02:15.650Z,98743.19
2022-08-30T16:04:43.930Z,98737.34
2022-08-30T16:07:10.975Z,98733.56
2022-08-30T16:09:38.400Z,98739.94
2022-08-30T16:12:08.393Z,98733.88
2022-08-30T16:14:36.962Z,98734.16
2022-08-30T16:17:04.862Z,98731.16
2022-08-30T16:19:31.873Z,98731.44
2022-08-30T16:21:58.779Z,98732.81
2022-08-30T16:24:26.172Z,98733.97
2022-08-30T16:26:53.166Z,98732.91
2022-08-30T16:29:20.144Z,98732.13
2022-08-30T16:31:47.460Z,98736.84
2022-08-30T16:34:15.979Z,98731.91
2022-08-30T16:36:43.157Z,98736.91
2022-08-30T16:39:11.169Z,98725.84
2022-08-30T16:41:38.995Z,98728.13
2022-08-30T16:44:06.264Z,98716.25
2022-08-30T16:46:33.573Z,98728.16
2022-08-30T16:49:02.418Z,98729.34
2022-08-30T16:51:30.214Z,98733.13
2022-08-30T16:53:58.260Z,98743.09
2022-08-30T16:56:26.532Z,98735.19
2022-08-30T16:59:01.221Z,98745.13
2022-08-30T17:01:28.925Z,98748.16
2022-08-30T17:03:55.926Z,98745.97
2022-08-30T17:06:23.185Z,98748.19
2022-08-30T17:08:56.122Z,98750.94
2022-08-30T17:11:23.835Z,98759.28
2022-08-30T17:13:50.904Z,98756.53
2022-08-30T17:16:27.386Z,98759.66
2022-08-30T17:18:55.234Z,98759.44
2022-08-30T17:21:22.183Z,98760.00
2022-08-30T17:23:50.238Z,98761.16
2022-08-30T17:26:18.432Z,98763.38
2022-08-30T17:28:45.887Z,98774.44
2022-08-30T17:31:12.855Z,98770.56
2022-08-30T17:33:45.469Z,98774.44
2022-08-30T17:36:13.077Z,98774.16
2022-08-30T17:38:45.087Z,98786.06
2022-08-30T17:41:13.005Z,98781.63
2022-08-30T17:43:40.256Z,98777.44
2022-08-30T17:46:08.795Z,98793.16
2022-08-30T17:48:36.905Z,98797.31
